Baltimore, Maryland
Current Conditions -  °F | °C
As of 4:54 PM on Saturday 20 Dec 2014 (Local Time) from KBWI Reporting Station
Broken Clouds Broken Clouds  
Wind Chill: 35°   Ceiling: 12000
Heat Index: 35°   Visibility: 10mi
Dew Point: 21°   Wind: 0mph
Humidity: 57%   Direction: NA
Pressure: 30.27"   Gusts: NA
Location:  39.29°N, 76.61°W
Report Text: KBWI 202154Z 00000KT 10SM FEW035 BKN120 BKN170 02/M06 A3027 RMK AO2 SLP250 T00171061
Loading
Personal Weather Stations






























Interactive Weather Map New forecast layout! Learn more

10-Day Weather Forecast

Advertisements
Track Severe Weather on mobile